sensor_id;sensor_type;location;lat;lon;timestamp;pressure;altitude;pressure_sealevel;temperature;humidity
47330;BME280;33060;50.178;7.570;2024-01-30T00:02:02;98228.75;;;6.26;100.00
47330;BME280;33060;50.178;7.570;2024-01-30T00:04:29;98224.84;;;6.37;100.00
47330;BME280;33060;50.178;7.570;2024-01-30T00:06:56;98223.66;;;6.21;100.00
47330;BME280;33060;50.178;7.570;2024-01-30T00:09:23;98228.47;;;6.08;100.00
47330;BME280;33060;50.178;7.570;2024-01-30T00:11:50;98226.13;;;6.26;100.00
47330;BME280;33060;50.178;7.570;2024-01-30T00:14:17;98228.09;;;6.19;100.00
47330;BME280;33060;50.178;7.570;2024-01-30T00:16:44;98233.97;;;6.01;100.00
47330;BME280;33060;50.178;7.570;2024-01-30T00:19:11;98233.19;;;5.97;100.00
47330;BME280;33060;50.178;7.570;2024-01-30T00:21:38;98227.38;;;6.14;100.00
47330;BME280;33060;50.178;7.570;2024-01-30T00:24:05;98226.91;;;6.03;100.00
47330;BME280;33060;50.178;7.570;2024-01-30T00:26:31;98223.22;;;6.08;100.00
47330;BME280;33060;50.178;7.570;2024-01-30T00:28:58;98221.47;;;6.09;100.00
47330;BME280;33060;50.178;7.570;2024-01-30T00:31:25;98222.19;;;5.86;100.00
47330;BME280;33060;50.178;7.570;2024-01-30T00:33:52;98224.53;;;5.95;100.00
47330;BME280;33060;50.178;7.570;2024-01-30T00:36:19;98223.28;;;5.79;100.00
47330;BME280;33060;50.178;7.570;2024-01-30T00:38:45;98214.59;;;6.05;100.00
47330;BME280;33060;50.178;7.570;2024-01-30T00:41:12;98214.94;;;6.20;100.00
47330;BME280;33060;50.178;7.570;2024-01-30T00:43:39;98220.03;;;6.50;100.00
47330;BME280;33060;50.178;7.570;2024-01-30T00:46:05;98220.94;;;6.49;100.00
47330;BME280;33060;50.178;7.570;2024-01-30T00:48:32;98221.13;;;6.68;100.00
47330;BME280;33060;50.178;7.570;2024-01-30T00:50:59;98226.59;;;6.12;100.00
47330;BME280;33060;50.178;7.570;2024-01-30T00:53:26;98224.63;;;6.18;100.00
47330;BME280;33060;50.178;7.570;2024-01-30T00:55:52;98228.38;;;5.83;100.00
47330;BME280;33060;50.178;7.570;2024-01-30T00:58:19;98225.34;;;5.41;100.00
47330;BME280;33060;50.178;7.570;2024-01-30T01:00:46;98222.59;;;5.74;100.00
47330;BME280;33060;50.178;7.570;2024-01-30T01:03:13;98218.72;;;5.85;100.00
47330;BME280;33060;50.178;7.570;2024-01-30T01:05:40;98212.38;;;6.19;100.00
47330;BME280;33060;50.178;7.570;2024-01-30T01:08:07;98210.28;;;6.04;100.00
47330;BME280;33060;50.178;7.570;2024-01-30T01:10:34;98214.47;;;5.81;100.00
47330;BME280;33060;50.178;7.570;2024-01-30T01:13:00;98225.22;;;5.72;100.00
47330;BME280;33060;50.178;7.570;2024-01-30T01:15:27;98214.97;;;5.66;100.00
47330;BME280;33060;50.178;7.570;2024-01-30T01:17:56;98220.34;;;5.33;100.00
47330;BME280;33060;50.178;7.570;2024-01-30T01:20:23;98217.63;;;5.36;100.00
47330;BME280;33060;50.178;7.570;2024-01-30T01:22:49;98216.00;;;5.32;100.00
47330;BME280;33060;50.178;7.570;2024-01-30T01:25:16;98219.44;;;5.34;100.00
47330;BME280;33060;50.178;7.570;2024-01-30T01:27:43;98216.56;;;5.70;100.00
47330;BME280;33060;50.178;7.570;2024-01-30T01:30:11;98211.78;;;5.56;100.00
47330;BME280;33060;50.178;7.570;2024-01-30T01:32:40;98215.97;;;5.62;100.00
47330;BME280;33060;50.178;7.570;2024-01-30T01:35:15;98213.31;;;5.90;100.00
47330;BME280;33060;50.178;7.570;2024-01-30T01:37:42;98205.34;;;5.94;100.00
47330;BME280;33060;50.178;7.570;2024-01-30T01:40:09;98201.69;;;6.00;100.00
47330;BME280;33060;50.178;7.570;2024-01-30T01:42:36;98197.84;;;6.10;100.00
47330;BME280;33060;50.178;7.570;2024-01-30T01:45:03;98200.28;;;6.15;100.00
47330;BME280;33060;50.178;7.570;2024-01-30T01:47:29;98208.72;;;5.70;100.00
47330;BME280;33060;50.178;7.570;2024-01-30T01:49:56;98211.56;;;5.62;100.00
47330;BME280;33060;50.178;7.570;2024-01-30T01:52:23;98211.53;;;5.64;100.00
47330;BME280;33060;50.178;7.570;2024-01-30T01:54:50;98205.72;;;5.54;100.00
47330;BME280;33060;50.178;7.570;2024-01-30T01:57:17;98209.34;;;5.78;100.00
47330;BME280;33060;50.178;7.570;2024-01-30T01:59:44;98209.63;;;5.69;100.00
47330;BME280;33060;50.178;7.570;2024-01-30T02:02:11;98210.06;;;5.82;100.00
47330;BME280;33060;50.178;7.570;2024-01-30T02:04:39;98205.84;;;5.78;100.00
47330;BME280;33060;50.178;7.570;2024-01-30T02:07:06;98195.31;;;6.07;100.00
47330;BME280;33060;50.178;7.570;2024-01-30T02:09:33;98203.28;;;5.76;100.00
47330;BME280;33060;50.178;7.570;2024-01-30T02:12:00;98195.75;;;5.67;100.00
47330;BME280;33060;50.178;7.570;2024-01-30T02:14:26;98197.03;;;6.08;100.00
47330;BME280;33060;50.178;7.570;2024-01-30T02:16:57;98195.34;;;6.06;100.00
47330;BME280;33060;50.178;7.570;2024-01-30T02:19:23;98198.44;;;5.92;100.00
47330;BME280;33060;50.178;7.570;2024-01-30T02:21:51;98191.41;;;5.94;100.00
47330;BME280;33060;50.178;7.570;2024-01-30T02:24:18;98193.53;;;6.08;100.00
47330;BME280;33060;50.178;7.570;2024-01-30T02:26:45;98192.69;;;6.07;100.00
47330;BME280;33060;50.178;7.570;2024-01-30T02:29:11;98191.81;;;6.08;100.00
47330;BME280;33060;50.178;7.570;2024-01-30T02:31:38;98198.16;;;6.26;100.00
47330;BME280;33060;50.178;7.570;2024-01-30T02:34:05;98195.31;;;6.07;100.00
47330;BME280;33060;50.178;7.570;2024-01-30T02:36:31;98187.50;;;6.06;100.00
47330;BME280;33060;50.178;7.570;2024-01-30T02:38:58;98192.63;;;5.82;100.00
47330;BME280;33060;50.178;7.570;2024-01-30T02:41:25;98193.06;;;5.68;100.00
47330;BME280;33060;50.178;7.570;2024-01-30T02:43:51;98191.78;;;5.54;100.00
47330;BME280;33060;50.178;7.570;2024-01-30T02:46:18;98185.66;;;5.55;100.00
47330;BME280;33060;50.178;7.570;2024-01-30T02:48:45;98194.72;;;5.71;100.00
47330;BME280;33060;50.178;7.570;2024-01-30T02:51:12;98188.56;;;5.72;100.00
47330;BME280;33060;50.178;7.570;2024-01-30T02:53:38;98177.44;;;5.93;100.00
47330;BME280;33060;50.178;7.570;2024-01-30T02:56:05;98182.09;;;5.84;100.00
47330;BME280;33060;50.178;7.570;2024-01-30T02:58:32;98181.75;;;5.68;100.00
47330;BME280;33060;50.178;7.570;2024-01-30T03:00:59;98189.66;;;5.66;100.00
47330;BME280;33060;50.178;7.570;2024-01-30T03:03:26;98177.13;;;5.76;100.00
47330;BME280;33060;50.178;7.570;2024-01-30T03:05:52;98187.41;;;5.81;100.00
47330;BME280;33060;50.178;7.570;2024-01-30T03:08:19;98180.28;;;5.86;100.00
47330;BME280;33060;50.178;7.570;2024-01-30T03:10:46;98182.69;;;5.93;100.00
47330;BME280;33060;50.178;7.570;2024-01-30T03:13:12;98172.00;;;6.00;100.00
47330;BME280;33060;50.178;7.570;2024-01-30T03:15:39;98174.72;;;5.97;100.00
47330;BME280;33060;50.178;7.570;2024-01-30T03:18:06;98171.13;;;5.99;100.00
47330;BME280;33060;50.178;7.570;2024-01-30T03:20:33;98176.09;;;6.08;100.00
47330;BME280;33060;50.178;7.570;2024-01-30T03:23:00;98158.59;;;6.09;100.00
47330;BME280;33060;50.178;7.570;2024-01-30T03:25:27;98161.00;;;5.88;100.00
47330;BME280;33060;50.178;7.570;2024-01-30T03:27:53;98161.16;;;5.84;100.00
47330;BME280;33060;50.178;7.570;2024-01-30T03:30:20;98163.78;;;5.84;100.00
47330;BME280;33060;50.178;7.570;2024-01-30T03:32:47;98159.13;;;5.93;100.00
47330;BME280;33060;50.178;7.570;2024-01-30T03:35:13;98158.53;;;6.10;100.00
47330;BME280;33060;50.178;7.570;2024-01-30T03:37:40;98165.22;;;5.94;100.00
47330;BME280;33060;50.178;7.570;2024-01-30T03:40:07;98158.53;;;5.84;100.00
47330;BME280;33060;50.178;7.570;2024-01-30T03:42:34;98158.94;;;5.72;100.00
47330;BME280;33060;50.178;7.570;2024-01-30T03:45:01;98162.94;;;5.55;100.00
47330;BME280;33060;50.178;7.570;2024-01-30T03:47:28;98160.81;;;5.68;100.00
47330;BME280;33060;50.178;7.570;2024-01-30T03:49:54;98166.03;;;5.68;100.00
47330;BME280;33060;50.178;7.570;2024-01-30T03:52:21;98159.84;;;5.71;100.00
47330;BME280;33060;50.178;7.570;2024-01-30T03:54:48;98170.06;;;5.78;100.00
47330;BME280;33060;50.178;7.570;2024-01-30T03:57:15;98156.97;;;5.78;100.00
47330;BME280;33060;50.178;7.570;2024-01-30T03:59:42;98163.72;;;5.85;100.00
47330;BME280;33060;50.178;7.570;2024-01-30T04:02:10;98163.50;;;5.93;100.00
47330;BME280;33060;50.178;7.570;2024-01-30T04:04:38;98152.13;;;6.19;100.00
47330;BME280;33060;50.178;7.570;2024-01-30T04:07:04;98153.91;;;6.42;100.00
47330;BME280;33060;50.178;7.570;2024-01-30T04:09:31;98154.25;;;6.08;100.00
47330;BME280;33060;50.178;7.570;2024-01-30T04:11:59;98160.81;;;5.94;100.00
47330;BME280;33060;50.178;7.570;2024-01-30T04:14:25;98152.00;;;6.22;100.00
47330;BME280;33060;50.178;7.570;2024-01-30T04:16:52;98150.78;;;6.32;100.00
47330;BME280;33060;50.178;7.570;2024-01-30T04:19:19;98157.88;;;6.04;100.00
47330;BME280;33060;50.178;7.570;2024-01-30T04:21:46;98154.78;;;5.92;100.00
47330;BME280;33060;50.178;7.570;2024-01-30T04:24:13;98158.78;;;5.76;100.00
47330;BME280;33060;50.178;7.570;2024-01-30T04:26:39;98155.00;;;5.85;100.00
47330;BME280;33060;50.178;7.570;2024-01-30T04:29:06;98160.66;;;5.99;100.00
47330;BME280;33060;50.178;7.570;2024-01-30T04:31:33;98161.03;;;6.13;100.00
47330;BME280;33060;50.178;7.570;2024-01-30T04:33:59;98156.66;;;6.14;100.00
47330;BME280;33060;50.178;7.570;2024-01-30T04:36:26;98158.03;;;6.24;100.00
47330;BME280;33060;50.178;7.570;2024-01-30T04:38:53;98159.59;;;6.30;100.00
47330;BME280;33060;50.178;7.570;2024-01-30T04:41:19;98165.50;;;6.36;100.00
47330;BME280;33060;50.178;7.570;2024-01-30T04:43:46;98161.31;;;6.06;100.00
47330;BME280;33060;50.178;7.570;2024-01-30T04:46:12;98163.72;;;6.12;100.00
47330;BME280;33060;50.178;7.570;2024-01-30T04:48:39;98160.03;;;5.92;100.00
47330;BME280;33060;50.178;7.570;2024-01-30T04:51:06;98164.63;;;5.58;100.00
47330;BME280;33060;50.178;7.570;2024-01-30T04:53:33;98160.91;;;5.65;100.00
47330;BME280;33060;50.178;7.570;2024-01-30T04:55:59;98164.72;;;5.81;100.00
47330;BME280;33060;50.178;7.570;2024-01-30T04:58:26;98160.72;;;5.98;100.00
47330;BME280;33060;50.178;7.570;2024-01-30T05:00:53;98160.13;;;6.14;100.00
47330;BME280;33060;50.178;7.570;2024-01-30T05:03:20;98164.69;;;5.83;100.00
47330;BME280;33060;50.178;7.570;2024-01-30T05:05:48;98166.09;;;5.66;100.00
47330;BME280;33060;50.178;7.570;2024-01-30T05:08:15;98162.16;;;5.53;100.00
47330;BME280;33060;50.178;7.570;2024-01-30T05:10:42;98164.06;;;5.48;100.00
47330;BME280;33060;50.178;7.570;2024-01-30T05:13:09;98163.06;;;5.52;100.00
47330;BME280;33060;50.178;7.570;2024-01-30T05:15:35;98166.28;;;5.60;100.00
47330;BME280;33060;50.178;7.570;2024-01-30T05:18:02;98163.25;;;5.46;100.00
47330;BME280;33060;50.178;7.570;2024-01-30T05:20:29;98158.13;;;5.70;100.00
47330;BME280;33060;50.178;7.570;2024-01-30T05:22:56;98163.97;;;5.78;100.00
47330;BME280;33060;50.178;7.570;2024-01-30T05:25:22;98153.94;;;5.92;100.00
47330;BME280;33060;50.178;7.570;2024-01-30T05:27:50;98153.97;;;6.17;100.00
47330;BME280;33060;50.178;7.570;2024-01-30T05:30:16;98156.91;;;5.80;100.00
47330;BME280;33060;50.178;7.570;2024-01-30T05:32:43;98167.25;;;5.58;100.00
47330;BME280;33060;50.178;7.570;2024-01-30T05:35:10;98154.34;;;5.78;100.00
47330;BME280;33060;50.178;7.570;2024-01-30T05:37:37;98156.66;;;5.87;100.00
47330;BME280;33060;50.178;7.570;2024-01-30T05:40:04;98161.91;;;5.87;100.00
47330;BME280;33060;50.178;7.570;2024-01-30T05:42:31;98167.09;;;5.62;100.00
47330;BME280;33060;50.178;7.570;2024-01-30T05:44:58;98160.03;;;5.92;100.00
47330;BME280;33060;50.178;7.570;2024-01-30T05:47:24;98167.84;;;5.66;100.00
47330;BME280;33060;50.178;7.570;2024-01-30T05:49:51;98176.50;;;5.68;100.00
47330;BME280;33060;50.178;7.570;2024-01-30T05:52:18;98173.41;;;5.55;100.00
47330;BME280;33060;50.178;7.570;2024-01-30T05:54:45;98165.84;;;5.48;100.00
47330;BME280;33060;50.178;7.570;2024-01-30T05:57:12;98167.84;;;5.39;100.00
47330;BME280;33060;50.178;7.570;2024-01-30T05:59:39;98162.41;;;5.72;100.00
47330;BME280;33060;50.178;7.570;2024-01-30T06:02:07;98166.94;;;5.41;100.00
47330;BME280;33060;50.178;7.570;2024-01-30T06:04:34;98170.91;;;5.52;100.00
47330;BME280;33060;50.178;7.570;2024-01-30T06:07:01;98166.69;;;5.48;100.00
47330;BME280;33060;50.178;7.570;2024-01-30T06:09:28;98163.59;;;5.35;100.00
47330;BME280;33060;50.178;7.570;2024-01-30T06:11:58;98153.63;;;5.73;100.00
47330;BME280;33060;50.178;7.570;2024-01-30T06:14:24;98155.13;;;6.08;100.00
47330;BME280;33060;50.178;7.570;2024-01-30T06:16:51;98143.63;;;6.12;100.00
47330;BME280;33060;50.178;7.570;2024-01-30T06:19:18;98152.19;;;6.17;100.00
47330;BME280;33060;50.178;7.570;2024-01-30T06:21:44;98145.22;;;6.16;100.00
47330;BME280;33060;50.178;7.570;2024-01-30T06:24:12;98158.69;;;6.06;100.00
47330;BME280;33060;50.178;7.570;2024-01-30T06:26:38;98153.09;;;5.91;100.00
47330;BME280;33060;50.178;7.570;2024-01-30T06:29:05;98163.91;;;5.79;100.00
47330;BME280;33060;50.178;7.570;2024-01-30T06:31:32;98163.06;;;5.79;100.00
47330;BME280;33060;50.178;7.570;2024-01-30T06:33:58;98160.63;;;6.01;100.00
47330;BME280;33060;50.178;7.570;2024-01-30T06:36:25;98154.09;;;6.12;100.00
47330;BME280;33060;50.178;7.570;2024-01-30T06:38:52;98148.69;;;6.42;100.00
47330;BME280;33060;50.178;7.570;2024-01-30T06:41:19;98154.94;;;6.38;100.00
47330;BME280;33060;50.178;7.570;2024-01-30T06:43:45;98149.91;;;6.32;100.00
47330;BME280;33060;50.178;7.570;2024-01-30T06:46:12;98153.31;;;6.35;100.00
47330;BME280;33060;50.178;7.570;2024-01-30T06:48:39;98153.81;;;6.45;100.00
47330;BME280;33060;50.178;7.570;2024-01-30T06:51:07;98157.56;;;6.13;100.00
47330;BME280;33060;50.178;7.570;2024-01-30T06:53:33;98154.09;;;6.37;100.00
47330;BME280;33060;50.178;7.570;2024-01-30T06:56:00;98157.78;;;6.32;100.00
47330;BME280;33060;50.178;7.570;2024-01-30T06:58:27;98164.84;;;6.55;100.00
47330;BME280;33060;50.178;7.570;2024-01-30T07:00:54;98164.66;;;6.59;100.00
47330;BME280;33060;50.178;7.570;2024-01-30T07:03:21;98162.00;;;6.61;100.00
47330;BME280;33060;50.178;7.570;2024-01-30T07:05:49;98172.25;;;6.67;100.00
47330;BME280;33060;50.178;7.570;2024-01-30T07:08:16;98163.47;;;6.44;100.00
47330;BME280;33060;50.178;7.570;2024-01-30T07:10:44;98172.50;;;6.59;100.00
47330;BME280;33060;50.178;7.570;2024-01-30T07:13:10;98171.06;;;6.50;100.00
47330;BME280;33060;50.178;7.570;2024-01-30T07:15:37;98170.94;;;6.55;100.00
47330;BME280;33060;50.178;7.570;2024-01-30T07:18:05;98171.78;;;6.56;100.00
47330;BME280;33060;50.178;7.570;2024-01-30T07:20:32;98173.81;;;6.47;100.00
47330;BME280;33060;50.178;7.570;2024-01-30T07:22:59;98173.44;;;6.82;100.00
47330;BME280;33060;50.178;7.570;2024-01-30T07:25:26;98172.88;;;6.73;100.00
47330;BME280;33060;50.178;7.570;2024-01-30T07:27:56;98178.63;;;6.83;100.00
47330;BME280;33060;50.178;7.570;2024-01-30T07:30:24;98181.94;;;6.88;100.00
47330;BME280;33060;50.178;7.570;2024-01-30T07:32:50;98180.97;;;6.91;100.00
47330;BME280;33060;50.178;7.570;2024-01-30T07:35:17;98175.16;;;7.06;100.00
47330;BME280;33060;50.178;7.570;2024-01-30T07:37:44;98179.84;;;7.21;100.00
47330;BME280;33060;50.178;7.570;2024-01-30T07:40:11;98183.03;;;7.28;100.00
47330;BME280;33060;50.178;7.570;2024-01-30T07:42:38;98177.91;;;7.48;100.00
47330;BME280;33060;50.178;7.570;2024-01-30T07:45:05;98183.06;;;7.72;100.00
47330;BME280;33060;50.178;7.570;2024-01-30T07:47:31;98181.59;;;7.86;100.00
47330;BME280;33060;50.178;7.570;2024-01-30T07:49:59;98183.44;;;7.62;100.00
47330;BME280;33060;50.178;7.570;2024-01-30T07:52:26;98186.22;;;7.80;100.00
47330;BME280;33060;50.178;7.570;2024-01-30T07:54:52;98193.63;;;7.70;100.00
47330;BME280;33060;50.178;7.570;2024-01-30T07:57:19;98186.28;;;7.78;100.00
47330;BME280;33060;50.178;7.570;2024-01-30T07:59:46;98190.47;;;8.25;100.00
47330;BME280;33060;50.178;7.570;2024-01-30T08:02:13;98184.25;;;8.27;100.00
47330;BME280;33060;50.178;7.570;2024-01-30T08:04:39;98182.75;;;8.21;100.00
47330;BME280;33060;50.178;7.570;2024-01-30T08:07:06;98190.09;;;8.34;100.00
47330;BME280;33060;50.178;7.570;2024-01-30T08:09:33;98189.69;;;8.22;100.00
47330;BME280;33060;50.178;7.570;2024-01-30T08:12:00;98181.97;;;8.40;100.00
47330;BME280;33060;50.178;7.570;2024-01-30T08:14:27;98184.97;;;8.31;100.00
47330;BME280;33060;50.178;7.570;2024-01-30T08:16:53;98182.34;;;8.10;100.00
47330;BME280;33060;50.178;7.570;2024-01-30T08:19:20;98187.78;;;8.06;100.00
47330;BME280;33060;50.178;7.570;2024-01-30T08:21:47;98189.31;;;8.32;100.00
47330;BME280;33060;50.178;7.570;2024-01-30T08:24:14;98184.63;;;8.60;100.00
47330;BME280;33060;50.178;7.570;2024-01-30T08:26:40;98184.50;;;8.82;100.00
47330;BME280;33060;50.178;7.570;2024-01-30T08:29:07;98185.72;;;8.94;100.00
47330;BME280;33060;50.178;7.570;2024-01-30T08:31:34;98183.53;;;8.64;100.00
47330;BME280;33060;50.178;7.570;2024-01-30T08:34:00;98187.47;;;8.74;100.00
47330;BME280;33060;50.178;7.570;2024-01-30T08:36:27;98191.19;;;8.89;100.00
47330;BME280;33060;50.178;7.570;2024-01-30T08:38:54;98198.09;;;8.53;100.00
47330;BME280;33060;50.178;7.570;2024-01-30T08:41:27;98201.75;;;8.48;100.00
47330;BME280;33060;50.178;7.570;2024-01-30T08:43:54;98197.13;;;8.74;100.00
47330;BME280;33060;50.178;7.570;2024-01-30T08:46:20;98201.56;;;8.92;100.00
47330;BME280;33060;50.178;7.570;2024-01-30T08:48:47;98195.25;;;8.77;100.00
47330;BME280;33060;50.178;7.570;2024-01-30T08:51:15;98203.25;;;9.14;100.00
47330;BME280;33060;50.178;7.570;2024-01-30T08:53:42;98195.00;;;9.21;100.00
47330;BME280;33060;50.178;7.570;2024-01-30T08:56:09;98196.91;;;9.18;100.00
47330;BME280;33060;50.178;7.570;2024-01-30T08:58:36;98199.94;;;8.90;100.00
47330;BME280;33060;50.178;7.570;2024-01-30T09:01:03;98196.13;;;8.97;100.00
47330;BME280;33060;50.178;7.570;2024-01-30T09:03:32;98195.19;;;8.98;100.00
47330;BME280;33060;50.178;7.570;2024-01-30T09:05:59;98195.00;;;9.21;100.00
47330;BME280;33060;50.178;7.570;2024-01-30T09:08:25;98192.25;;;9.60;100.00
47330;BME280;33060;50.178;7.570;2024-01-30T09:10:52;98180.69;;;9.82;100.00
47330;BME280;33060;50.178;7.570;2024-01-30T09:13:19;98191.97;;;9.67;100.00
47330;BME280;33060;50.178;7.570;2024-01-30T09:15:46;98193.00;;;9.81;100.00
47330;BME280;33060;50.178;7.570;2024-01-30T09:18:12;98197.41;;;9.81;100.00
47330;BME280;33060;50.178;7.570;2024-01-30T09:20:39;98186.19;;;9.95;100.00
47330;BME280;33060;50.178;7.570;2024-01-30T09:23:06;98188.03;;;10.29;100.00
47330;BME280;33060;50.178;7.570;2024-01-30T09:25:32;98187.78;;;10.33;100.00
47330;BME280;33060;50.178;7.570;2024-01-30T09:28:00;98199.00;;;10.02;100.00
47330;BME280;33060;50.178;7.570;2024-01-30T09:30:27;98193.91;;;9.99;100.00
47330;BME280;33060;50.178;7.570;2024-01-30T09:32:54;98197.94;;;10.24;100.00
47330;BME280;33060;50.178;7.570;2024-01-30T09:35:21;98202.31;;;10.06;100.00
47330;BME280;33060;50.178;7.570;2024-01-30T09:37:48;98204.50;;;10.34;100.00
47330;BME280;33060;50.178;7.570;2024-01-30T09:40:15;98201.31;;;10.44;100.00
47330;BME280;33060;50.178;7.570;2024-01-30T09:42:50;98203.66;;;10.66;100.00
47330;BME280;33060;50.178;7.570;2024-01-30T09:45:18;98208.41;;;10.60;100.00
47330;BME280;33060;50.178;7.570;2024-01-30T09:47:48;98215.63;;;10.73;100.00
47330;BME280;33060;50.178;7.570;2024-01-30T09:50:15;98221.25;;;10.83;100.00
47330;BME280;33060;50.178;7.570;2024-01-30T09:52:44;98224.25;;;10.60;100.00
47330;BME280;33060;50.178;7.570;2024-01-30T09:55:10;98223.50;;;10.91;100.00
47330;BME280;33060;50.178;7.570;2024-01-30T09:57:37;98215.28;;;10.97;100.00
47330;BME280;33060;50.178;7.570;2024-01-30T10:00:04;98227.75;;;10.78;100.00
47330;BME280;33060;50.178;7.570;2024-01-30T10:02:40;98227.13;;;11.06;100.00
47330;BME280;33060;50.178;7.570;2024-01-30T10:05:08;98230.03;;;11.17;100.00
47330;BME280;33060;50.178;7.570;2024-01-30T10:07:35;98226.22;;;10.89;100.00
47330;BME280;33060;50.178;7.570;2024-01-30T10:10:02;98221.16;;;10.69;100.00
47330;BME280;33060;50.178;7.570;2024-01-30T10:12:29;98226.72;;;10.80;100.00
47330;BME280;33060;50.178;7.570;2024-01-30T10:14:56;98222.84;;;10.87;100.00
47330;BME280;33060;50.178;7.570;2024-01-30T10:17:25;98222.88;;;11.19;100.00
47330;BME280;33060;50.178;7.570;2024-01-30T10:19:59;98225.13;;;11.26;100.00
47330;BME280;33060;50.178;7.570;2024-01-30T10:22:27;98221.16;;;11.02;100.00
47330;BME280;33060;50.178;7.570;2024-01-30T10:24:54;98217.63;;;11.35;100.00
47330;BME280;33060;50.178;7.570;2024-01-30T10:27:25;98220.44;;;11.31;100.00
47330;BME280;33060;50.178;7.570;2024-01-30T10:29:51;98226.88;;;11.75;100.00
47330;BME280;33060;50.178;7.570;2024-01-30T10:32:19;98223.94;;;11.64;100.00
47330;BME280;33060;50.178;7.570;2024-01-30T10:34:46;98224.53;;;11.53;100.00
47330;BME280;33060;50.178;7.570;2024-01-30T10:37:15;98221.56;;;11.43;100.00
47330;BME280;33060;50.178;7.570;2024-01-30T10:39:44;98219.69;;;11.77;100.00
47330;BME280;33060;50.178;7.570;2024-01-30T10:42:17;98211.66;;;11.63;100.00
47330;BME280;33060;50.178;7.570;2024-01-30T10:47:28;98207.34;;;11.93;100.00
47330;BME280;33060;50.178;7.570;2024-01-30T10:49:56;98220.81;;;11.57;100.00
47330;BME280;33060;50.178;7.570;2024-01-30T10:52:24;98221.56;;;11.43;100.00
47330;BME280;33060;50.178;7.570;2024-01-30T10:54:55;98225.69;;;11.65;100.00
47330;BME280;33060;50.178;7.570;2024-01-30T10:57:26;98221.81;;;11.39;100.00
47330;BME280;33060;50.178;7.570;2024-01-30T10:59:56;98224.31;;;11.57;100.00
47330;BME280;33060;50.178;7.570;2024-01-30T11:02:24;98221.66;;;11.42;100.00
47330;BME280;33060;50.178;7.570;2024-01-30T11:04:56;98233.31;;;11.38;100.00
47330;BME280;33060;50.178;7.570;2024-01-30T11:07:28;98228.03;;;11.38;100.00
47330;BME280;33060;50.178;7.570;2024-01-30T11:12:32;98226.19;;;11.55;100.00
47330;BME280;33060;50.178;7.570;2024-01-30T11:22:47;98231.03;;;10.98;100.00
47330;BME280;33060;50.178;7.570;2024-01-30T11:25:15;98234.31;;;11.19;100.00
47330;BME280;33060;50.178;7.570;2024-01-30T11:27:44;98231.50;;;11.22;100.00
47330;BME280;33060;50.178;7.570;2024-01-30T11:30:41;98229.91;;;11.36;100.00
47330;BME280;33060;50.178;7.570;2024-01-30T11:33:13;98228.03;;;11.53;100.00
47330;BME280;33060;50.178;7.570;2024-01-30T11:35:44;98222.50;;;11.42;100.00
47330;BME280;33060;50.178;7.570;2024-01-30T11:38:14;98222.75;;;11.38;100.00
47330;BME280;33060;50.178;7.570;2024-01-30T11:40:41;98216.44;;;11.72;100.00
47330;BME280;33060;50.178;7.570;2024-01-30T11:43:08;98210.72;;;11.64;100.00
47330;BME280;33060;50.178;7.570;2024-01-30T11:45:36;98207.97;;;11.82;100.00
47330;BME280;33060;50.178;7.570;2024-01-30T11:48:03;98199.19;;;12.12;100.00
47330;BME280;33060;50.178;7.570;2024-01-30T11:50:38;98211.53;;;11.81;100.00
47330;BME280;33060;50.178;7.570;2024-01-30T11:53:05;98207.22;;;11.63;100.00
47330;BME280;33060;50.178;7.570;2024-01-30T11:55:32;98199.75;;;11.55;100.00
47330;BME280;33060;50.178;7.570;2024-01-30T11:58:01;98194.53;;;11.70;100.00
47330;BME280;33060;50.178;7.570;2024-01-30T12:00:29;98196.00;;;11.75;100.00
47330;BME280;33060;50.178;7.570;2024-01-30T12:02:57;98193.44;;;11.74;100.00
47330;BME280;33060;50.178;7.570;2024-01-30T12:05:25;98179.94;;;12.10;100.00
47330;BME280;33060;50.178;7.570;2024-01-30T12:07:53;98176.66;;;11.59;100.00
47330;BME280;33060;50.178;7.570;2024-01-30T12:10:21;98167.34;;;11.99;100.00
47330;BME280;33060;50.178;7.570;2024-01-30T12:12:51;98174.66;;;11.94;100.00
47330;BME280;33060;50.178;7.570;2024-01-30T12:15:18;98174.94;;;12.20;100.00
47330;BME280;33060;50.178;7.570;2024-01-30T12:17:48;98171.50;;;12.03;100.00
47330;BME280;33060;50.178;7.570;2024-01-30T12:20:18;98177.03;;;11.99;100.00
47330;BME280;33060;50.178;7.570;2024-01-30T12:22:47;98172.56;;;11.85;100.00
47330;BME280;33060;50.178;7.570;2024-01-30T12:25:15;98177.59;;;12.20;100.00
47330;BME280;33060;50.178;7.570;2024-01-30T12:27:47;98177.09;;;12.43;100.00
47330;BME280;33060;50.178;7.570;2024-01-30T12:30:18;98170.47;;;12.36;100.00
47330;BME280;33060;50.178;7.570;2024-01-30T12:32:46;98172.78;;;11.96;100.00
47330;BME280;33060;50.178;7.570;2024-01-30T12:35:15;98170.84;;;12.14;100.00
47330;BME280;33060;50.178;7.570;2024-01-30T12:37:44;98181.28;;;12.17;100.00
47330;BME280;33060;50.178;7.570;2024-01-30T12:40:12;98185.88;;;11.83;100.00
47330;BME280;33060;50.178;7.570;2024-01-30T12:42:41;98187.03;;;11.46;100.00
47330;BME280;33060;50.178;7.570;2024-01-30T12:45:09;98189.94;;;11.57;100.00
47330;BME280;33060;50.178;7.570;2024-01-30T12:47:36;98185.09;;;11.66;100.00
47330;BME280;33060;50.178;7.570;2024-01-30T12:50:03;98185.97;;;11.82;100.00
47330;BME280;33060;50.178;7.570;2024-01-30T12:52:30;98185.25;;;11.63;100.00
47330;BME280;33060;50.178;7.570;2024-01-30T12:54:57;98190.72;;;11.59;100.00
47330;BME280;33060;50.178;7.570;2024-01-30T12:57:25;98203.97;;;11.11;100.00
47330;BME280;33060;50.178;7.570;2024-01-30T12:59:51;98184.81;;;11.23;100.00
47330;BME280;33060;50.178;7.570;2024-01-30T13:02:18;98196.34;;;11.22;100.00
47330;BME280;33060;50.178;7.570;2024-01-30T13:04:45;98188.91;;;11.44;100.00
47330;BME280;33060;50.178;7.570;2024-01-30T13:07:15;98194.03;;;11.31;100.00
47330;BME280;33060;50.178;7.570;2024-01-30T13:09:42;98190.81;;;11.58;100.00
47330;BME280;33060;50.178;7.570;2024-01-30T13:12:09;98197.56;;;10.99;100.00